Time;durP1;ratioP1;P1;durP2;ratioP2;P2;SDS_P1;SDS_P2;PMS_P1;PMS_P2;Temp;Humidity;BMP_temperature;BMP_pressure;BME280_temperature;BME280_humidity;BME280_pressure;Samples;Min_cycle;Max_cycle;Signal;HPM_P1;HPM_P2
2021/05/15 00:01:09;;;;;;;2.13;2.03;;;10.70;99.90;;;;;;5015636;28;20449;-49
2021/05/15 00:03:36;;;;;;;2.90;2.17;;;10.70;99.90;;;;;;5015650;28;20504;-50
2021/05/15 00:06:03;;;;;;;2.50;2.30;;;10.60;99.90;;;;;;5033766;28;20452;-49
2021/05/15 00:08:30;;;;;;;4.23;2.30;;;10.50;99.90;;;;;;5035172;28;20492;-50
2021/05/15 00:10:58;;;;;;;2.37;2.17;;;10.50;99.90;;;;;;5035307;28;20934;-49
2021/05/15 00:13:24;;;;;;;2.43;2.23;;;10.60;99.90;;;;;;5034971;28;20455;-50
2021/05/15 00:15:51;;;;;;;2.40;2.20;;;10.70;99.90;;;;;;5024638;28;20452;-49
2021/05/15 00:18:18;;;;;;;3.13;2.47;;;10.70;99.90;;;;;;5020012;28;20472;-50
2021/05/15 00:20:45;;;;;;;5.67;2.50;;;10.70;99.90;;;;;;5034910;28;20456;-49
2021/05/15 00:23:12;;;;;;;2.93;2.60;;;10.80;99.90;;;;;;5034788;28;20452;-50
2021/05/15 00:25:38;;;;;;;2.90;2.50;;;10.80;99.90;;;;;;5034464;28;20453;-49
2021/05/15 00:28:06;;;;;;;3.93;3.40;;;10.80;99.90;;;;;;5034735;28;20495;-50
2021/05/15 00:30:32;;;;;;;3.60;2.80;;;10.70;99.90;;;;;;5034959;28;20453;-50
2021/05/15 00:32:59;;;;;;;2.40;2.20;;;10.70;99.90;;;;;;5033929;28;20452;-50
2021/05/15 00:35:25;;;;;;;3.77;2.10;;;10.70;99.90;;;;;;5034139;28;20456;-50
2021/05/15 00:37:52;;;;;;;2.30;2.10;;;10.60;99.90;;;;;;5034445;28;20469;-50
2021/05/15 00:40:19;;;;;;;2.90;2.30;;;10.60;99.90;;;;;;5034721;28;20467;-50
2021/05/15 00:42:47;;;;;;;2.93;2.43;;;10.70;99.90;;;;;;5034233;28;20452;-50
2021/05/15 00:45:16;;;;;;;1.80;1.70;;;10.70;99.90;;;;;;5033828;28;20535;-49
2021/05/15 00:47:43;;;;;;;2.53;1.90;;;10.70;99.90;;;;;;5033929;28;20526;-49
2021/05/15 00:50:11;;;;;;;1.93;1.70;;;10.80;99.90;;;;;;5018839;28;20460;-50
2021/05/15 00:52:38;;;;;;;3.47;1.93;;;10.80;99.90;;;;;;5017873;28;20449;-50
2021/05/15 00:55:11;;;;;;;1.80;1.70;;;10.80;99.90;;;;;;5034231;28;20456;-50
2021/05/15 00:57:38;;;;;;;1.77;1.40;;;10.80;99.90;;;;;;5034255;28;20468;-50
2021/05/15 01:00:07;;;;;;;1.90;1.67;;;10.70;99.90;;;;;;5034146;28;20856;-50
2021/05/15 01:02:34;;;;;;;1.57;1.47;;;10.70;99.90;;;;;;5033792;28;20453;-50
2021/05/15 01:05:01;;;;;;;1.40;1.30;;;10.60;99.90;;;;;;5033448;28;20457;-50
2021/05/15 01:07:28;;;;;;;1.40;1.30;;;10.70;99.90;;;;;;5032724;28;20491;-50
2021/05/15 01:09:54;;;;;;;1.50;1.40;;;10.70;99.90;;;;;;5034108;28;20456;-49
2021/05/15 01:12:21;;;;;;;2.40;2.00;;;10.40;99.90;;;;;;5033736;28;20852;-50
2021/05/15 01:14:48;;;;;;;2.23;2.03;;;10.50;99.90;;;;;;5033619;28;20484;-50
2021/05/15 01:17:14;;;;;;;3.30;2.10;;;10.60;99.90;;;;;;5033854;28;20453;-49
2021/05/15 01:19:42;;;;;;;2.80;2.50;;;10.80;99.90;;;;;;5033580;28;20460;-50
2021/05/15 01:22:12;;;;;;;2.37;2.17;;;10.60;99.90;;;;;;5032932;28;20452;-50
2021/05/15 01:24:44;;;;;;;2.40;2.20;;;10.70;99.90;;;;;;5033007;28;20537;-50
2021/05/15 01:27:14;;;;;;;2.20;2.00;;;10.60;99.90;;;;;;5033840;28;20539;-50
2021/05/15 01:29:41;;;;;;;2.63;2.43;;;10.60;99.90;;;;;;5033600;28;20449;-50
2021/05/15 01:32:08;;;;;;;2.07;1.97;;;10.60;99.90;;;;;;5033241;28;20455;-50
2021/05/15 01:34:37;;;;;;;4.10;2.33;;;10.50;99.90;;;;;;5033509;28;20448;-50
2021/05/15 01:37:04;;;;;;;3.30;2.37;;;10.40;99.90;;;;;;5033389;28;20456;-50
2021/05/15 01:39:32;;;;;;;2.00;1.90;;;10.50;99.90;;;;;;5022263;28;20551;-50
2021/05/15 01:41:58;;;;;;;5.77;2.20;;;10.50;99.90;;;;;;5018490;28;20548;-50
2021/05/15 01:44:25;;;;;;;2.40;2.20;;;10.50;99.90;;;;;;5033191;28;20445;-49
2021/05/15 01:46:51;;;;;;;2.27;2.07;;;10.50;99.90;;;;;;5033253;28;20459;-50
2021/05/15 01:49:19;;;;;;;1.80;1.70;;;10.50;99.90;;;;;;5032420;28;20848;-50
2021/05/15 01:51:46;;;;;;;7.17;2.00;;;10.50;99.90;;;;;;5033194;28;20449;-50
2021/05/15 01:54:12;;;;;;;2.37;2.17;;;10.40;99.90;;;;;;5033248;28;20946;-50
2021/05/15 01:56:40;;;;;;;2.00;1.90;;;10.40;99.90;;;;;;5032448;28;20522;-50
2021/05/15 01:59:08;;;;;;;2.13;2.00;;;10.40;99.90;;;;;;5032191;28;20564;-50
2021/05/15 02:01:35;;;;;;;2.23;1.70;;;10.40;99.90;;;;;;5032660;28;20513;-50
2021/05/15 02:04:03;;;;;;;1.70;1.60;;;10.40;99.90;;;;;;5032893;28;20969;-50
2021/05/15 02:06:29;;;;;;;2.00;1.90;;;10.30;99.90;;;;;;5032981;28;20453;-50
2021/05/15 02:08:56;;;;;;;2.03;1.60;;;10.00;99.90;;;;;;5032822;28;20595;-49
2021/05/15 02:11:22;;;;;;;1.80;1.70;;;10.10;99.90;;;;;;5032364;28;20449;-49
2021/05/15 02:13:50;;;;;;;2.07;1.87;;;10.10;99.90;;;;;;5013141;28;20449;-50
2021/05/15 02:16:18;;;;;;;1.80;1.70;;;10.10;99.90;;;;;;5012799;28;20452;-50
2021/05/15 02:18:45;;;;;;;1.70;1.60;;;10.10;99.90;;;;;;5048649;22;20585;-57
2021/05/15 02:21:11;;;;;;;1.70;1.60;;;10.20;99.90;;;;;;5052489;28;20450;-57
2021/05/15 02:23:38;;;;;;;4.07;1.90;;;10.20;99.90;;;;;;5052693;28;20452;-57
2021/05/15 02:26:05;;;;;;;1.80;1.70;;;10.20;99.90;;;;;;5052507;28;20814;-57
2021/05/15 02:28:32;;;;;;;1.60;1.50;;;10.00;99.90;;;;;;5050032;28;20484;-57
2021/05/15 02:31:00;;;;;;;2.30;2.10;;;10.10;99.90;;;;;;5035880;28;20487;-57
2021/05/15 02:33:26;;;;;;;1.63;1.53;;;10.20;99.90;;;;;;5051164;28;20458;-57
2021/05/15 02:35:53;;;;;;;1.93;1.83;;;10.10;99.90;;;;;;5052026;28;20448;-57
2021/05/15 02:38:21;;;;;;;1.90;1.80;;;10.20;99.90;;;;;;5052395;28;20467;-57
2021/05/15 02:40:48;;;;;;;1.80;1.70;;;10.20;99.90;;;;;;5052146;28;20459;-57
2021/05/15 02:43:15;;;;;;;1.80;1.70;;;10.20;99.90;;;;;;5052507;28;20968;-57
2021/05/15 02:45:42;;;;;;;1.83;1.67;;;10.20;99.90;;;;;;5051374;28;20459;-57
2021/05/15 02:48:16;;;;;;;1.60;1.50;;;10.20;99.90;;;;;;5051946;28;20541;-57
2021/05/15 02:50:43;;;;;;;2.03;1.83;;;10.30;99.90;;;;;;5051814;28;21000;-57
2021/05/15 02:53:09;;;;;;;2.10;1.90;;;10.20;99.90;;;;;;5052141;28;20946;-57
2021/05/15 02:55:36;;;;;;;1.77;1.67;;;10.20;99.90;;;;;;5051551;28;20451;-56
2021/05/15 02:58:03;;;;;;;3.13;1.87;;;10.30;99.90;;;;;;5052122;28;20448;-57
2021/05/15 03:00:30;;;;;;;1.80;1.70;;;10.20;99.90;;;;;;5051686;28;20976;-57
2021/05/15 03:02:57;;;;;;;2.23;2.03;;;10.30;99.90;;;;;;5051413;28;20448;-57
2021/05/15 03:05:26;;;;;;;2.03;1.90;;;10.20;99.90;;;;;;5051680;28;20454;-57
2021/05/15 03:07:53;;;;;;;1.80;1.47;;;10.10;99.90;;;;;;5051907;28;20483;-57
2021/05/15 03:10:23;;;;;;;2.10;1.90;;;10.00;99.90;;;;;;5051396;28;20476;-57
2021/05/15 03:12:50;;;;;;;2.20;1.80;;;10.00;99.90;;;;;;5051610;28;20950;-57
2021/05/15 03:15:16;;;;;;;2.10;2.00;;;10.00;99.90;;;;;;5051822;28;20448;-57
2021/05/15 03:17:44;;;;;;;2.20;2.00;;;10.10;99.90;;;;;;5050606;28;20803;-57
2021/05/15 03:20:13;;;;;;;2.37;1.80;;;10.10;99.90;;;;;;5051572;28;20475;-56
2021/05/15 03:22:41;;;;;;;2.03;1.93;;;10.00;99.90;;;;;;5051677;28;20798;-56
2021/05/15 03:25:09;;;;;;;3.70;2.60;;;10.00;99.90;;;;;;5051335;28;20976;-57
2021/05/15 03:27:36;;;;;;;2.03;1.80;;;10.00;99.90;;;;;;5051588;28;20495;-57
2021/05/15 03:30:04;;;;;;;2.33;2.20;;;10.00;99.90;;;;;;5051753;28;20475;-56
2021/05/15 03:32:31;;;;;;;2.30;2.10;;;9.90;99.90;;;;;;5051863;28;20452;-57
2021/05/15 03:34:57;;;;;;;2.20;1.90;;;9.80;99.90;;;;;;5038016;28;20452;-57
2021/05/15 03:37:24;;;;;;;1.83;1.73;;;9.60;99.90;;;;;;5031877;28;20843;-57
2021/05/15 03:39:51;;;;;;;1.70;1.60;;;9.70;99.90;;;;;;5031593;28;20986;-57
2021/05/15 03:42:18;;;;;;;2.00;1.80;;;9.60;99.90;;;;;;5031633;28;20449;-57
2021/05/15 03:44:46;;;;;;;2.30;2.10;;;9.50;99.90;;;;;;5031478;28;20455;-57
2021/05/15 03:47:13;;;;;;;1.50;1.40;;;9.50;99.90;;;;;;5044751;28;20451;-57
2021/05/15 03:49:40;;;;;;;1.73;1.63;;;9.50;99.90;;;;;;5050676;28;20464;-56
2021/05/15 03:52:07;;;;;;;1.50;1.40;;;9.40;99.90;;;;;;5051663;28;20509;-57
2021/05/15 03:54:34;;;;;;;1.67;1.57;;;9.50;99.90;;;;;;5051233;28;20974;-57
2021/05/15 03:57:01;;;;;;;1.93;1.80;;;9.50;99.90;;;;;;5051361;28;20440;-57
2021/05/15 03:59:28;;;;;;;1.63;1.53;;;9.60;99.90;;;;;;5051473;28;20476;-56
2021/05/15 04:01:54;;;;;;;2.70;1.70;;;9.60;99.90;;;;;;5036961;28;20444;-57
2021/05/15 04:04:21;;;;;;;2.57;1.70;;;9.50;99.90;;;;;;5031406;28;20449;-57
2021/05/15 04:06:47;;;;;;;5.60;1.90;;;9.60;99.90;;;;;;5031519;28;20518;-57
2021/05/15 04:09:14;;;;;;;4.60;2.13;;;9.60;99.90;;;;;;5031192;28;20878;-57
2021/05/15 04:11:40;;;;;;;2.50;2.30;;;9.40;99.90;;;;;;5049911;28;20443;-56
2021/05/15 04:14:21;;;;;;;2.33;2.13;;;9.50;99.90;;;;;;5051254;28;20953;-56
2021/05/15 04:17:01;;;;;;;2.43;2.23;;;9.60;99.90;;;;;;5047954;28;20832;-57
2021/05/15 04:19:28;;;;;;;2.10;2.00;;;9.60;99.90;;;;;;5031134;28;20912;-57
2021/05/15 04:21:55;;;;;;;2.63;2.10;;;9.60;99.90;;;;;;5034063;28;20448;-57
2021/05/15 04:24:24;;;;;;;2.37;2.17;;;9.70;99.90;;;;;;5034927;28;20449;-57
2021/05/15 04:26:52;;;;;;;2.47;2.00;;;9.80;99.90;;;;;;5034765;28;20452;-57
2021/05/15 04:29:20;;;;;;;1.77;1.67;;;9.80;99.90;;;;;;5034716;28;20496;-57
2021/05/15 04:31:47;;;;;;;2.57;1.80;;;9.70;99.90;;;;;;5034793;28;20872;-57
2021/05/15 04:34:14;;;;;;;2.17;2.00;;;9.70;99.90;;;;;;5044479;28;20455;-57
2021/05/15 04:36:40;;;;;;;1.77;1.67;;;9.70;99.90;;;;;;5054777;28;20452;-57
2021/05/15 04:39:07;;;;;;;4.83;1.70;;;9.80;99.90;;;;;;5053962;28;20467;-57
2021/05/15 04:41:34;;;;;;;2.57;1.90;;;9.90;99.90;;;;;;5052426;28;20452;-57
2021/05/15 04:44:00;;;;;;;1.90;1.70;;;10.00;99.90;;;;;;5046528;28;20477;-57
2021/05/15 04:46:28;;;;;;;2.83;2.00;;;10.20;99.90;;;;;;5054175;28;20451;-56
2021/05/15 04:48:54;;;;;;;2.03;1.83;;;10.60;99.90;;;;;;5054274;28;20494;-57
2021/05/15 04:51:21;;;;;;;1.80;1.70;;;11.20;99.90;;;;;;5052657;28;20509;-57
2021/05/15 04:53:48;;;;;;;1.60;1.50;;;11.70;99.90;;;;;;5040015;28;20460;-56
2021/05/15 04:56:15;;;;;;;2.50;1.70;;;12.10;99.90;;;;;;5047663;28;20456;-57
2021/05/15 04:58:41;;;;;;;1.60;1.50;;;12.00;99.90;;;;;;5054172;28;20916;-57
2021/05/15 05:01:08;;;;;;;1.40;1.30;;;12.40;99.90;;;;;;5054373;28;20933;-57
2021/05/15 05:03:36;;;;;;;2.40;1.57;;;13.00;99.90;;;;;;5054427;28;20451;-57
2021/05/15 05:06:02;;;;;;;2.10;1.40;;;13.80;99.90;;;;;;5042184;28;21039;-57
2021/05/15 05:08:29;;;;;;;1.97;1.87;;;14.20;99.90;;;;;;5052767;28;21159;-57
2021/05/15 05:10:56;;;;;;;2.20;2.00;;;14.60;99.90;;;;;;5053822;28;20452;-57
2021/05/15 05:13:22;;;;;;;4.90;3.63;;;14.60;99.90;;;;;;5053411;28;20456;-57
2021/05/15 05:15:49;;;;;;;3.30;3.00;;;15.50;99.90;;;;;;5053762;28;20455;-57
2021/05/15 05:18:16;;;;;;;3.23;1.93;;;16.00;99.90;;;;;;5053459;28;20505;-57
2021/05/15 05:20:43;;;;;;;3.50;2.87;;;15.90;99.90;;;;;;5054141;28;20493;-57
2021/05/15 05:23:09;;;;;;;5.47;4.47;;;15.70;99.90;;;;;;5053704;28;20451;-56
2021/05/15 05:25:36;;;;;;;2.10;2.00;;;16.20;99.90;;;;;;5053064;28;20444;-57
2021/05/15 05:28:03;;;;;;;1.43;1.33;;;16.80;99.90;;;;;;5050536;28;20483;-56
2021/05/15 05:30:29;;;;;;;1.93;1.60;;;17.60;99.90;;;;;;5053729;28;20455;-57
2021/05/15 05:32:56;;;;;;;2.07;1.90;;;18.40;99.90;;;;;;5052682;28;20451;-57
2021/05/15 05:35:23;;;;;;;2.67;2.10;;;18.30;99.90;;;;;;5052983;28;20456;-57
2021/05/15 05:37:50;;;;;;;4.03;2.67;;;17.90;99.90;;;;;;5052964;28;20839;-57
2021/05/15 05:40:17;;;;;;;5.20;4.20;;;18.00;99.90;;;;;;5052270;28;20467;-57
2021/05/15 05:42:44;;;;;;;1.63;1.53;;;18.00;99.90;;;;;;5053826;28;20509;-57
2021/05/15 05:45:14;;;;;;;1.20;1.10;;;17.40;99.90;;;;;;5053736;28;20497;-57
2021/05/15 05:47:41;;;;;;;1.20;1.10;;;17.00;99.90;;;;;;5053236;28;20530;-57
2021/05/15 05:50:09;;;;;;;1.30;1.20;;;17.40;99.90;;;;;;5052535;28;20470;-57
2021/05/15 05:52:36;;;;;;;3.03;2.20;;;17.90;99.90;;;;;;5052608;28;20509;-56
2021/05/15 05:55:04;;;;;;;1.87;1.30;;;18.40;99.90;;;;;;5051496;28;20448;-57
2021/05/15 05:57:31;;;;;;;1.47;1.37;;;19.00;99.90;;;;;;5050340;28;20471;-57
2021/05/15 05:59:57;;;;;;;1.30;1.20;;;19.00;99.90;;;;;;5051360;28;21069;-57
2021/05/15 06:02:24;;;;;;;1.43;1.33;;;19.20;99.90;;;;;;5053038;28;20452;-57
2021/05/15 06:04:50;;;;;;;1.83;1.07;;;19.40;99.90;;;;;;5052292;28;20440;-57
2021/05/15 06:07:16;;;;;;;1.10;1.00;;;20.10;99.90;;;;;;5051789;28;20451;-57
2021/05/15 06:09:46;;;;;;;1.83;1.60;;;20.40;99.90;;;;;;5051906;28;20472;-57
2021/05/15 06:12:14;;;;;;;1.20;1.10;;;20.30;99.90;;;;;;5043440;28;20459;-57
2021/05/15 06:14:41;;;;;;;1.30;1.20;;;19.50;99.90;;;;;;5051461;28;20832;-57
2021/05/15 06:17:08;;;;;;;1.20;1.10;;;18.90;99.90;;;;;;5052252;28;20447;-56
2021/05/15 06:19:34;;;;;;;1.87;1.10;;;19.20;99.90;;;;;;5051256;28;20482;-57
2021/05/15 06:22:00;;;;;;;1.87;1.00;;;19.10;99.90;;;;;;5043069;28;20452;-57
2021/05/15 06:24:27;;;;;;;1.47;1.37;;;19.20;99.90;;;;;;5051948;28;20455;-57
2021/05/15 06:26:53;;;;;;;1.20;1.10;;;19.20;99.90;;;;;;5042412;28;20875;-57
2021/05/15 06:29:21;;;;;;;1.40;1.30;;;19.00;99.90;;;;;;5052017;28;20483;-57
2021/05/15 06:31:47;;;;;;;1.10;1.00;;;18.90;99.90;;;;;;5039506;28;20449;-57
2021/05/15 06:34:14;;;;;;;2.87;2.40;;;18.50;99.90;;;;;;5033995;28;20511;-57
2021/05/15 06:36:40;;;;;;;3.13;1.40;;;18.30;99.90;;;;;;5051637;28;20452;-57
2021/05/15 06:39:07;;;;;;;3.10;1.20;;;18.30;99.90;;;;;;5052120;28;20468;-57
2021/05/15 06:41:33;;;;;;;1.70;1.60;;;18.10;99.90;;;;;;5047948;28;20502;-57
2021/05/15 06:44:00;;;;;;;2.20;2.00;;;17.70;99.90;;;;;;5048193;28;20448;-57
2021/05/15 06:46:27;;;;;;;1.77;1.20;;;17.80;99.90;;;;;;5051861;28;20444;-57
2021/05/15 06:48:54;;;;;;;1.00;1.00;;;17.90;99.90;;;;;;5051834;28;20914;-57
2021/05/15 06:51:20;;;;;;;1.30;1.20;;;17.90;99.90;;;;;;5052241;28;20455;-57
2021/05/15 06:53:47;;;;;;;1.43;1.33;;;18.50;99.90;;;;;;5052024;28;20451;-57
2021/05/15 06:56:13;;;;;;;1.43;1.33;;;18.60;99.90;;;;;;5046305;28;20464;-57
2021/05/15 06:58:43;;;;;;;1.10;1.00;;;19.50;99.90;;;;;;5048983;28;20471;-57
2021/05/15 07:01:10;;;;;;;1.30;1.20;;;19.90;99.90;;;;;;5050946;28;20878;-57
2021/05/15 07:03:38;;;;;;;1.17;1.00;;;19.50;99.90;;;;;;5051531;28;20455;-57
2021/05/15 07:06:05;;;;;;;1.20;1.10;;;20.00;99.90;;;;;;5051241;28;20448;-57
2021/05/15 07:08:31;;;;;;;2.13;1.10;;;20.30;99.90;;;;;;5046771;28;20488;-57
2021/05/15 07:10:58;;;;;;;2.43;1.10;;;20.30;99.90;;;;;;5050757;28;20451;-57
2021/05/15 07:13:25;;;;;;;1.08;0.80;;;20.60;99.90;;;;;;5048672;28;20448;-57
2021/05/15 07:15:53;;;;;;;1.43;0.97;;;20.80;99.90;;;;;;5048858;28;20693;-57
2021/05/15 07:18:21;;;;;;;1.90;1.13;;;21.60;99.90;;;;;;5049531;28;20467;-58
2021/05/15 07:20:49;;;;;;;1.10;1.00;;;21.90;99.90;;;;;;5049325;28;20451;-58
2021/05/15 07:23:16;;;;;;;1.10;1.00;;;22.40;99.90;;;;;;5045848;28;20464;-57
2021/05/15 07:25:43;;;;;;;1.30;1.20;;;22.80;99.90;;;;;;5049770;28;20456;-57
2021/05/15 07:28:10;;;;;;;1.47;0.70;;;22.70;99.10;;;;;;5050674;28;21058;-57
2021/05/15 07:30:36;;;;;;;0.90;0.90;;;22.60;96.20;;;;;;5056978;28;20459;-57
2021/05/15 07:33:03;;;;;;;0.73;0.70;;;22.10;97.60;;;;;;5050825;28;20462;-57
2021/05/15 07:35:29;;;;;;;1.23;1.13;;;21.90;98.90;;;;;;5049429;28;20460;-58
2021/05/15 07:37:57;;;;;;;0.90;0.90;;;22.00;99.00;;;;;;5050440;28;20976;-58
2021/05/15 07:40:24;;;;;;;1.20;0.93;;;22.10;99.30;;;;;;5050413;28;20452;-58
2021/05/15 07:42:51;;;;;;;3.03;0.90;;;22.70;99.10;;;;;;5050537;28;20875;-59
2021/05/15 07:45:17;;;;;;;1.20;0.93;;;22.80;98.10;;;;;;5049481;28;20452;-58
2021/05/15 07:47:44;;;;;;;0.87;0.87;;;22.60;98.20;;;;;;5050295;28;20475;-58
2021/05/15 07:50:11;;;;;;;1.00;0.90;;;23.40;95.40;;;;;;5047732;28;20470;-58
2021/05/15 07:52:37;;;;;;;1.10;0.90;;;23.50;95.30;;;;;;5047333;28;20451;-58
2021/05/15 07:55:07;;;;;;;0.80;0.70;;;22.50;95.20;;;;;;5050227;28;20447;-57
2021/05/15 07:57:34;;;;;;;0.80;0.80;;;22.60;91.90;;;;;;5054412;28;20528;-57
2021/05/15 08:00:01;;;;;;;1.10;0.70;;;21.80;95.90;;;;;;5053566;28;20646;-57
2021/05/15 08:02:28;;;;;;;1.33;0.80;;;22.00;96.20;;;;;;5055041;28;20827;-57
2021/05/15 08:04:55;;;;;;;2.13;1.30;;;22.30;93.80;;;;;;5054925;28;20460;-57
2021/05/15 08:07:21;;;;;;;0.80;0.70;;;22.60;93.00;;;;;;5053544;28;20513;-57
2021/05/15 08:09:48;;;;;;;1.57;0.70;;;22.80;92.00;;;;;;5055011;28;20478;-57
2021/05/15 08:12:15;;;;;;;1.97;0.70;;;23.40;92.00;;;;;;5054579;28;20868;-57
2021/05/15 08:14:43;;;;;;;1.03;0.93;;;23.70;90.30;;;;;;5037834;28;20486;-57
2021/05/15 08:17:09;;;;;;;1.70;0.80;;;24.10;90.50;;;;;;5034792;28;20532;-57
2021/05/15 08:19:36;;;;;;;2.60;0.80;;;24.30;89.60;;;;;;5035138;28;20483;-56
2021/05/15 08:22:02;;;;;;;1.43;0.67;;;23.60;90.60;;;;;;5054437;28;20444;-57
2021/05/15 08:24:29;;;;;;;0.73;0.73;;;23.80;90.30;;;;;;5054076;28;20452;-57
2021/05/15 08:26:56;;;;;;;1.10;0.90;;;22.70;93.00;;;;;;5054277;28;20505;-56
2021/05/15 08:29:24;;;;;;;0.70;0.70;;;21.90;93.50;;;;;;5053902;28;20545;-57
2021/05/15 08:31:51;;;;;;;1.73;1.03;;;21.30;93.00;;;;;;5054570;28;20474;-56
2021/05/15 08:34:17;;;;;;;1.80;0.80;;;20.10;95.10;;;;;;5049467;28;20499;-56
2021/05/15 08:36:44;;;;;;;0.80;0.80;;;19.30;95.00;;;;;;5034294;28;20502;-56
2021/05/15 08:39:10;;;;;;;3.10;0.80;;;18.90;97.80;;;;;;5034415;28;20472;-56
2021/05/15 08:41:36;;;;;;;1.77;0.70;;;18.50;94.90;;;;;;5034179;28;20938;-56
2021/05/15 08:44:04;;;;;;;0.70;0.70;;;19.60;97.80;;;;;;5034479;28;20452;-56
2021/05/15 08:46:32;;;;;;;1.10;0.73;;;20.40;95.80;;;;;;5033926;28;20506;-57
2021/05/15 08:49:02;;;;;;;3.53;0.80;;;21.60;91.90;;;;;;5038261;28;20484;-56
2021/05/15 08:51:30;;;;;;;0.63;0.63;;;22.20;94.30;;;;;;5034375;28;20445;-57
2021/05/15 08:53:58;;;;;;;0.80;0.70;;;23.00;93.30;;;;;;5034213;28;20476;-56
2021/05/15 08:56:25;;;;;;;0.70;0.70;;;23.50;90.70;;;;;;5034112;28;20586;-57
2021/05/15 08:58:52;;;;;;;0.80;0.80;;;23.50;89.10;;;;;;5053947;28;21014;-57
2021/05/15 09:01:19;;;;;;;0.80;0.70;;;23.20;85.70;;;;;;5054197;28;20448;-57
2021/05/15 09:03:46;;;;;;;0.97;0.83;;;21.90;93.50;;;;;;5053927;28;20452;-56
2021/05/15 09:06:13;;;;;;;0.90;0.90;;;22.10;93.20;;;;;;5053509;28;20943;-57
2021/05/15 09:08:39;;;;;;;0.90;0.80;;;22.00;91.10;;;;;;5053357;28;20491;-57
2021/05/15 09:11:06;;;;;;;2.40;0.80;;;21.90;92.60;;;;;;5053737;28;20451;-56
2021/05/15 09:13:33;;;;;;;0.80;0.80;;;20.00;95.90;;;;;;5054068;28;20451;-57
2021/05/15 09:16:01;;;;;;;1.07;0.90;;;19.60;96.40;;;;;;5053642;28;20471;-57
2021/05/15 09:18:29;;;;;;;0.80;0.70;;;20.00;93.80;;;;;;5053589;28;20483;-57
2021/05/15 09:20:58;;;;;;;1.93;0.90;;;19.40;94.90;;;;;;5053681;28;20447;-57
2021/05/15 09:23:27;;;;;;;0.90;0.80;;;19.30;95.10;;;;;;5053905;28;20938;-56
2021/05/15 09:28:31;;;;;;;1.20;0.80;;;20.40;91.10;;;;;;5029506;28;20900;-50
2021/05/15 09:31:07;;;;;;;1.00;0.70;;;20.40;93.10;;;;;;5033413;28;20444;-50
2021/05/15 09:33:34;;;;;;;1.50;0.80;;;20.20;94.00;;;;;;5033518;28;20455;-50
2021/05/15 09:36:15;;;;;;;1.30;1.13;;;18.70;94.20;;;;;;5030827;28;20476;-50
2021/05/15 09:38:42;;;;;;;1.60;1.00;;;18.70;93.30;;;;;;5012916;28;20449;-50
2021/05/15 09:41:08;;;;;;;1.07;0.80;;;19.20;92.40;;;;;;5012662;28;20453;-50
2021/05/15 09:43:35;;;;;;;1.43;0.60;;;20.00;92.60;;;;;;5013136;28;20460;-50
2021/05/15 09:46:02;;;;;;;0.70;0.70;;;20.80;90.30;;;;;;5012871;28;20450;-50
2021/05/15 09:48:37;;;;;;;0.77;0.77;;;21.30;88.20;;;;;;5013181;28;20867;-50
2021/05/15 09:51:15;;;;;;;1.20;0.73;;;21.10;88.30;;;;;;5012973;28;20480;-50
2021/05/15 09:53:43;;;;;;;1.57;0.80;;;20.80;90.50;;;;;;5012933;28;20456;-50
2021/05/15 09:56:10;;;;;;;0.90;0.80;;;20.70;90.80;;;;;;5012791;28;20449;-50
2021/05/15 09:58:37;;;;;;;3.70;0.83;;;20.50;90.20;;;;;;5012684;28;20955;-50
2021/05/15 10:01:04;;;;;;;1.50;0.97;;;20.00;92.10;;;;;;5012805;28;20457;-50
2021/05/15 10:03:32;;;;;;;2.30;0.90;;;20.20;90.70;;;;;;5012977;28;20515;-50
2021/05/15 10:06:04;;;;;;;1.83;1.10;;;20.80;90.70;;;;;;5012505;28;20460;-51
2021/05/15 10:08:33;;;;;;;2.53;1.60;;;19.90;92.30;;;;;;5012686;28;20477;-51
2021/05/15 10:11:03;;;;;;;5.00;2.00;;;20.20;93.50;;;;;;5012461;28;20454;-50
2021/05/15 10:13:30;;;;;;;2.20;1.23;;;21.30;91.60;;;;;;5012929;28;20516;-51
2021/05/15 10:15:57;;;;;;;1.83;1.00;;;21.40;91.50;;;;;;5012142;28;20511;-51
2021/05/15 10:18:23;;;;;;;3.07;2.77;;;21.30;91.90;;;;;;5012207;28;20512;-51
2021/05/15 10:20:50;;;;;;;1.20;1.10;;;21.30;93.20;;;;;;5012365;28;20465;-51
2021/05/15 10:23:23;;;;;;;0.90;0.90;;;20.90;92.00;;;;;;5012874;28;20480;-51
2021/05/15 10:26:00;;;;;;;2.10;1.10;;;21.00;89.30;;;;;;5011567;28;20453;-51
2021/05/15 10:28:28;;;;;;;1.07;0.90;;;21.80;90.30;;;;;;5012491;28;20534;-55
2021/05/15 10:31:13;;;;;;;2.17;1.13;;;22.00;91.30;;;;;;5012553;28;20457;-51
2021/05/15 10:33:41;;;;;;;3.80;1.20;;;21.60;90.10;;;;;;5012238;28;20450;-53
2021/05/15 10:36:19;;;;;;;1.23;1.13;;;21.60;92.10;;;;;;5011083;28;20457;-52
2021/05/15 10:38:46;;;;;;;1.00;1.00;;;21.70;89.90;;;;;;5011933;28;20448;-51
2021/05/15 10:41:19;;;;;;;3.60;1.23;;;21.80;90.00;;;;;;5011734;28;20529;-51
2021/05/15 10:43:48;;;;;;;0.90;0.90;;;20.50;91.70;;;;;;5011256;28;20458;-51
2021/05/15 10:46:26;;;;;;;1.93;1.20;;;20.00;92.10;;;;;;5008989;28;20476;-51
2021/05/15 10:48:57;;;;;;;1.83;1.23;;;19.80;92.10;;;;;;5010621;28;20855;-50
2021/05/15 10:51:39;;;;;;;0.97;0.97;;;19.20;94.60;;;;;;5008339;28;20947;-50
2021/05/15 10:54:07;;;;;;;2.00;1.20;;;19.40;94.70;;;;;;5012229;28;20536;-50
2021/05/15 10:56:35;;;;;;;1.20;1.10;;;18.90;93.80;;;;;;5011811;28;20524;-50
2021/05/15 10:59:04;;;;;;;2.23;1.40;;;19.10;94.60;;;;;;5012238;28;20453;-50
2021/05/15 11:01:49;;;;;;;3.60;1.57;;;18.70;96.30;;;;;;5012010;28;20536;-50
2021/05/15 11:04:17;;;;;;;2.13;1.40;;;19.00;95.50;;;;;;5012008;28;20503;-50
2021/05/15 11:07:05;;;;;;;1.50;1.40;;;18.90;94.40;;;;;;5011892;28;20473;-51
2021/05/15 11:09:33;;;;;;;1.23;1.10;;;18.90;94.80;;;;;;4992335;28;20481;-50
2021/05/15 11:12:15;;;;;;;1.73;1.30;;;18.70;93.90;;;;;;4992416;28;20468;-50
2021/05/15 11:14:45;;;;;;;2.60;1.10;;;18.00;94.40;;;;;;4998103;28;20540;-50
2021/05/15 11:17:23;;;;;;;1.20;1.10;;;17.40;95.20;;;;;;5012000;28;20473;-51
2021/05/15 11:19:58;;;;;;;1.20;1.10;;;17.50;95.60;;;;;;5011975;28;20955;-50
2021/05/15 11:22:37;;;;;;;1.37;1.27;;;17.80;95.00;;;;;;5011228;28;20453;-50
2021/05/15 11:25:16;;;;;;;1.73;1.33;;;17.80;96.90;;;;;;5011539;28;20967;-50
2021/05/15 11:27:46;;;;;;;1.87;1.17;;;18.00;95.70;;;;;;5011603;28;20488;-50
2021/05/15 11:30:16;;;;;;;1.03;0.97;;;18.30;94.50;;;;;;5011215;28;20445;-50
2021/05/15 11:32:58;;;;;;;1.13;1.07;;;18.70;95.00;;;;;;5011864;28;20541;-50
2021/05/15 11:35:25;;;;;;;1.00;0.90;;;18.80;95.70;;;;;;5011143;28;20448;-50
2021/05/15 11:38:07;;;;;;;1.10;0.90;;;19.10;93.50;;;;;;5011764;28;20484;-50
2021/05/15 11:40:35;;;;;;;1.37;1.00;;;19.20;92.00;;;;;;5011784;28;20471;-51
2021/05/15 11:43:03;;;;;;;1.33;1.10;;;19.30;94.50;;;;;;5011894;28;20454;-51
2021/05/15 11:45:32;;;;;;;3.93;0.90;;;19.00;96.70;;;;;;5011198;28;20504;-50
2021/05/15 11:48:10;;;;;;;1.70;1.50;;;18.60;96.50;;;;;;5011387;28;20465;-50
2021/05/15 11:50:37;;;;;;;1.40;1.03;;;18.60;95.50;;;;;;5011844;28;20847;-51
2021/05/15 11:53:05;;;;;;;3.33;1.10;;;18.40;94.30;;;;;;5011367;28;20990;-51
2021/05/15 11:55:32;;;;;;;1.27;0.80;;;18.80;92.90;;;;;;5011153;28;20959;-50
2021/05/15 11:58:01;;;;;;;0.87;0.80;;;18.90;92.30;;;;;;5011273;28;20473;-51
2021/05/15 12:00:29;;;;;;;3.90;1.20;;;18.80;91.50;;;;;;5010889;28;20829;-50
2021/05/15 12:02:56;;;;;;;1.43;1.10;;;19.20;92.60;;;;;;5011462;28;20504;-50
2021/05/15 12:05:23;;;;;;;0.80;0.80;;;18.30;92.00;;;;;;5011442;28;20523;-51
2021/05/15 12:07:51;;;;;;;2.23;1.17;;;18.30;93.30;;;;;;5011357;28;20473;-50
2021/05/15 12:10:20;;;;;;;1.53;1.00;;;18.30;94.00;;;;;;5011471;28;20476;-50
2021/05/15 12:12:55;;;;;;;1.00;1.00;;;18.30;94.30;;;;;;5010985;28;20985;-51
2021/05/15 12:15:22;;;;;;;1.00;0.90;;;18.10;94.20;;;;;;5011258;28;20449;-50
2021/05/15 12:17:49;;;;;;;1.03;0.90;;;18.30;94.40;;;;;;5010826;28;20470;-50
2021/05/15 12:20:29;;;;;;;1.50;0.93;;;18.00;93.40;;;;;;5011269;28;20551;-51
2021/05/15 12:23:10;;;;;;;1.00;0.90;;;17.90;93.40;;;;;;5010315;28;20453;-51
2021/05/15 12:25:38;;;;;;;1.10;0.90;;;17.90;93.20;;;;;;5011249;28;20456;-50
2021/05/15 12:28:16;;;;;;;0.90;0.90;;;17.50;93.60;;;;;;5011109;28;20485;-50
2021/05/15 12:30:42;;;;;;;1.10;0.97;;;17.60;93.50;;;;;;5011181;28;20449;-50
2021/05/15 12:33:10;;;;;;;1.23;0.70;;;17.60;93.60;;;;;;5011001;28;20453;-50
2021/05/15 12:35:37;;;;;;;1.00;0.90;;;17.30;92.90;;;;;;5010366;28;20481;-50
2021/05/15 12:38:08;;;;;;;2.40;1.20;;;17.20;93.90;;;;;;5011193;28;20476;-50
2021/05/15 12:40:34;;;;;;;1.53;1.20;;;17.10;95.70;;;;;;5011305;28;20477;-50
2021/05/15 12:43:10;;;;;;;1.60;0.90;;;16.70;95.70;;;;;;5013421;28;20457;-50
2021/05/15 12:45:39;;;;;;;0.80;0.80;;;16.50;95.30;;;;;;5014278;28;20449;-50
2021/05/15 12:48:07;;;;;;;1.93;1.07;;;16.70;95.40;;;;;;5014252;28;20473;-50
2021/05/15 12:50:37;;;;;;;1.77;1.20;;;16.90;95.50;;;;;;5014582;28;20449;-49
2021/05/15 12:53:08;;;;;;;1.33;1.10;;;16.80;95.20;;;;;;5014684;28;20457;-50
2021/05/15 12:55:35;;;;;;;1.40;0.90;;;16.90;94.60;;;;;;5014168;28;20449;-51